Time;durP1;ratioP1;P1;durP2;ratioP2;P2;SDS_P1;SDS_P2;PMS_P1;PMS_P2;Temp;Humidity;BMP_temperature;BMP_pressure;BME280_temperature;BME280_humidity;BME280_pressure;Samples;Min_cycle;Max_cycle;Signal;HPM_P1;HPM_P2
2022/09/17 00:00:12;;;;;;;8.38;1.67;;;;;;;;;;6159770;23;20026;-73
2022/09/17 00:02:39;;;;;;;9.25;2.88;;;;;;;;;;6159953;23;20089;-72
2022/09/17 00:05:05;;;;;;;17.27;2.15;;;;;;;;;;6159717;23;20034;-74
2022/09/17 00:07:32;;;;;;;8.90;2.03;;;;;;;;;;6157744;23;20460;-74
2022/09/17 00:09:58;;;;;;;8.18;1.75;;;;;;;;;;6160012;23;20408;-75
2022/09/17 00:12:24;;;;;;;8.57;1.65;;;;;;;;;;6159960;23;20038;-73
2022/09/17 00:14:50;;;;;;;11.63;2.17;;;;;;;;;;6159646;23;20057;-74
2022/09/17 00:17:17;;;;;;;7.03;1.85;;;;;;;;;;6159767;23;20089;-72
2022/09/17 00:19:43;;;;;;;11.18;1.70;;;;;;;;;;6159566;23;20057;-74
2022/09/17 00:22:09;;;;;;;9.90;1.58;;;;;;;;;;6159946;23;20412;-74
2022/09/17 00:24:35;;;;;;;8.73;1.70;;;;;;;;;;6159805;23;20106;-74
2022/09/17 00:27:01;;;;;;;12.45;2.40;;;;;;;;;;6158077;23;20025;-73
2022/09/17 00:29:28;;;;;;;9.60;1.58;;;;;;;;;;6159773;23;20034;-74
2022/09/17 00:31:54;;;;;;;7.97;2.20;;;;;;;;;;6159770;23;20089;-74
2022/09/17 00:34:20;;;;;;;8.07;1.42;;;;;;;;;;6160426;23;20029;-73
2022/09/17 00:36:47;;;;;;;6.82;1.73;;;;;;;;;;6159744;23;20061;-73
2022/09/17 00:39:15;;;;;;;8.18;2.30;;;;;;;;;;6159324;23;20497;-74
2022/09/17 00:41:42;;;;;;;13.52;1.73;;;;;;;;;;6159472;23;20058;-74
2022/09/17 00:44:27;;;;;;;13.02;1.38;;;;;;;;;;6159787;23;20451;-72
2022/09/17 00:46:53;;;;;;;6.60;1.30;;;;;;;;;;6159543;23;20519;-74
2022/09/17 00:49:27;;;;;;;9.68;2.03;;;;;;;;;;6160048;23;20242;-74
2022/09/17 00:52:03;;;;;;;18.27;2.40;;;;;;;;;;6159644;23;20041;-73
2022/09/17 00:54:29;;;;;;;8.85;1.42;;;;;;;;;;6159736;23;20901;-73
2022/09/17 00:56:56;;;;;;;8.10;1.20;;;;;;;;;;6159962;23;20041;-74
2022/09/17 00:59:22;;;;;;;17.48;1.80;;;;;;;;;;6159002;23;20407;-74
2022/09/17 01:01:49;;;;;;;16.55;2.30;;;;;;;;;;6159209;23;20030;-73
2022/09/17 01:04:16;;;;;;;10.40;1.80;;;;;;;;;;6158976;23;20069;-74
2022/09/17 01:06:53;;;;;;;7.13;1.38;;;;;;;;;;6159526;23;20550;-73
2022/09/17 01:09:36;;;;;;;9.70;1.60;;;;;;;;;;6159742;23;20030;-74
2022/09/17 01:12:05;;;;;;;9.02;2.10;;;;;;;;;;6158928;23;20034;-73
2022/09/17 01:14:44;;;;;;;9.75;2.35;;;;;;;;;;6159384;23;20025;-73
2022/09/17 01:17:27;;;;;;;6.70;1.15;;;;;;;;;;6159644;23;20030;-74
2022/09/17 01:20:06;;;;;;;5.85;1.23;;;;;;;;;;6160696;23;20459;-74
2022/09/17 01:22:34;;;;;;;8.35;1.85;;;;;;;;;;6160937;23;20033;-73
2022/09/17 01:25:03;;;;;;;5.45;1.20;;;;;;;;;;6160480;23;20034;-73
2022/09/17 01:27:42;;;;;;;9.10;1.25;;;;;;;;;;6160866;23;20033;-73
2022/09/17 01:30:27;;;;;;;9.32;1.35;;;;;;;;;;6159295;23;20110;-75
2022/09/17 01:33:08;;;;;;;8.60;2.20;;;;;;;;;;6160324;23;20341;-74
2022/09/17 01:35:40;;;;;;;8.05;1.40;;;;;;;;;;6160360;23;20026;-73
2022/09/17 01:38:06;;;;;;;8.18;1.48;;;;;;;;;;6160622;23;20026;-73
2022/09/17 01:40:39;;;;;;;4.03;0.82;;;;;;;;;;6160420;23;20067;-73
2022/09/17 01:43:12;;;;;;;3.85;1.10;;;;;;;;;;6160979;23;20476;-72
2022/09/17 01:45:38;;;;;;;4.85;1.13;;;;;;;;;;6160739;23;20030;-73
2022/09/17 01:48:18;;;;;;;7.25;1.08;;;;;;;;;;6160769;23;20058;-73
2022/09/17 01:51:04;;;;;;;6.70;1.20;;;;;;;;;;6160144;23;20448;-73
2022/09/17 01:53:38;;;;;;;15.20;1.27;;;;;;;;;;6159763;23;20030;-73
2022/09/17 01:56:06;;;;;;;5.53;1.13;;;;;;;;;;6159999;23;20085;-73
2022/09/17 01:58:35;;;;;;;2.88;0.90;;;;;;;;;;6159580;23;20037;-73
2022/09/17 02:01:04;;;;;;;3.28;0.90;;;;;;;;;;6159913;23;20384;-73
2022/09/17 02:03:35;;;;;;;4.53;0.60;;;;;;;;;;6160077;23;20030;-72
2022/09/17 02:06:04;;;;;;;7.97;1.42;;;;;;;;;;6160285;23;20495;-74
2022/09/17 02:08:35;;;;;;;5.50;1.00;;;;;;;;;;6160296;23;20029;-74
2022/09/17 02:11:07;;;;;;;5.65;1.10;;;;;;;;;;6160051;23;20022;-73
2022/09/17 02:13:38;;;;;;;4.32;1.10;;;;;;;;;;6160567;23;20034;-73
2022/09/17 02:16:11;;;;;;;4.78;1.25;;;;;;;;;;6160285;23;20106;-73
2022/09/17 02:18:56;;;;;;;3.95;0.80;;;;;;;;;;6160360;23;20100;-73
2022/09/17 02:21:41;;;;;;;9.40;1.23;;;;;;;;;;6159770;23;20036;-73
2022/09/17 02:24:13;;;;;;;4.13;0.57;;;;;;;;;;6160366;23;20030;-74
2022/09/17 02:26:44;;;;;;;6.93;1.27;;;;;;;;;;6160392;23;20242;-73
2022/09/17 02:29:18;;;;;;;1.83;0.88;;;;;;;;;;6160564;23;20095;-73
2022/09/17 02:31:44;;;;;;;6.60;1.20;;;;;;;;;;6160069;23;20030;-73
2022/09/17 02:34:11;;;;;;;6.18;1.35;;;;;;;;;;6160263;23;20053;-73
2022/09/17 02:36:37;;;;;;;7.50;0.98;;;;;;;;;;6160250;23;20026;-73
2022/09/17 02:39:03;;;;;;;5.47;2.10;;;;;;;;;;6160550;23;20033;-73
2022/09/17 02:41:41;;;;;;;4.03;0.93;;;;;;;;;;6160608;23;20037;-73
2022/09/17 02:44:12;;;;;;;3.90;1.27;;;;;;;;;;6160296;23;20029;-73
2022/09/17 02:46:58;;;;;;;5.57;1.23;;;;;;;;;;6159564;23;20030;-73
2022/09/17 02:49:24;;;;;;;;;;;;;;;;;;6161407;23;20422;-73
2022/09/17 02:52:03;;;;;;;5.80;1.40;;;;;;;;;;6159279;23;45675;-73
2022/09/17 02:54:49;;;;;;;2.85;0.73;;;;;;;;;;6160218;23;20030;-73
2022/09/17 02:57:18;;;;;;;11.38;2.45;;;;;;;;;;6160348;23;20033;-73
2022/09/17 02:59:55;;;;;;;5.88;1.00;;;;;;;;;;6159868;23;20088;-73
2022/09/17 03:02:35;;;;;;;7.32;1.38;;;;;;;;;;6160335;23;20079;-73
2022/09/17 03:05:03;;;;;;;5.07;1.10;;;;;;;;;;6160108;23;20034;-72
2022/09/17 03:07:31;;;;;;;10.40;2.83;;;;;;;;;;6160192;23;20030;-74
2022/09/17 03:09:57;;;;;;;7.03;1.10;;;;;;;;;;6159757;23;20089;-73
2022/09/17 03:12:25;;;;;;;8.35;1.27;;;;;;;;;;6160002;23;20486;-73
2022/09/17 03:14:51;;;;;;;4.22;1.38;;;;;;;;;;6159761;23;20140;-73
2022/09/17 03:17:18;;;;;;;5.68;1.02;;;;;;;;;;6160371;23;20080;-73
2022/09/17 03:19:44;;;;;;;7.75;1.25;;;;;;;;;;6160472;23;20025;-72
2022/09/17 03:22:11;;;;;;;3.05;1.23;;;;;;;;;;6160098;23;20034;-72
2022/09/17 03:24:37;;;;;;;6.28;1.52;;;;;;;;;;6160198;23;20077;-72
2022/09/17 03:27:03;;;;;;;8.68;1.58;;;;;;;;;;6160409;23;20030;-74
2022/09/17 03:29:30;;;;;;;6.70;1.00;;;;;;;;;;6160274;23;20447;-73
2022/09/17 03:31:56;;;;;;;7.30;1.30;;;;;;;;;;6159840;23;20464;-73
2022/09/17 03:34:22;;;;;;;5.88;1.15;;;;;;;;;;6160591;23;20066;-72
2022/09/17 03:36:49;;;;;;;8.43;1.00;;;;;;;;;;6159551;23;20034;-74
2022/09/17 03:39:15;;;;;;;8.30;1.83;;;;;;;;;;6160485;23;20128;-73
2022/09/17 03:41:41;;;;;;;9.65;1.85;;;;;;;;;;6160193;23;20034;-72
2022/09/17 03:44:09;;;;;;;9.82;1.38;;;;;;;;;;6160178;23;20400;-73
2022/09/17 03:46:36;;;;;;;6.75;1.52;;;;;;;;;;6160289;23;20035;-72
2022/09/17 03:49:03;;;;;;;10.40;2.38;;;;;;;;;;6160313;23;20058;-73
2022/09/17 03:51:29;;;;;;;7.85;1.42;;;;;;;;;;6160018;23;20030;-73
2022/09/17 03:53:56;;;;;;;4.90;1.08;;;;;;;;;;6160132;23;20026;-73
2022/09/17 03:56:22;;;;;;;9.07;1.38;;;;;;;;;;6160385;23;20025;-73
2022/09/17 03:58:48;;;;;;;7.03;1.40;;;;;;;;;;6159240;23;20030;-73
2022/09/17 04:01:14;;;;;;;8.90;1.58;;;;;;;;;;6159417;23;20447;-73
2022/09/17 04:03:41;;;;;;;5.25;1.17;;;;;;;;;;6159879;23;20060;-73
2022/09/17 04:06:07;;;;;;;8.23;1.35;;;;;;;;;;6159728;23;20140;-74
2022/09/17 04:08:34;;;;;;;11.43;2.55;;;;;;;;;;6159724;23;20495;-74
2022/09/17 04:11:00;;;;;;;11.68;1.70;;;;;;;;;;6159782;23;20144;-73
2022/09/17 04:13:26;;;;;;;7.40;1.60;;;;;;;;;;6159603;23;20026;-73
2022/09/17 04:15:52;;;;;;;7.93;2.03;;;;;;;;;;6159564;23;20416;-73
2022/09/17 04:18:19;;;;;;;7.15;1.13;;;;;;;;;;6160856;23;20081;-74
2022/09/17 04:20:45;;;;;;;3.90;1.15;;;;;;;;;;6159622;23;20033;-73
2022/09/17 04:23:12;;;;;;;4.72;1.00;;;;;;;;;;6159932;23;20030;-73
2022/09/17 04:25:38;;;;;;;5.70;1.20;;;;;;;;;;6159386;23;20026;-75
2022/09/17 04:28:04;;;;;;;4.53;0.90;;;;;;;;;;6159761;23;20038;-73
2022/09/17 04:30:30;;;;;;;4.40;1.23;;;;;;;;;;6159751;23;20085;-73
2022/09/17 04:32:57;;;;;;;5.43;0.95;;;;;;;;;;6159546;23;20077;-73
2022/09/17 04:35:23;;;;;;;3.75;1.27;;;;;;;;;;6159685;23;20026;-73
2022/09/17 04:37:53;;;;;;;3.78;1.17;;;;;;;;;;6160164;23;20812;-74
2022/09/17 04:40:19;;;;;;;7.13;1.20;;;;;;;;;;6159396;23;20097;-73
2022/09/17 04:42:46;;;;;;;6.93;0.98;;;;;;;;;;6159593;23;20029;-73
2022/09/17 04:45:12;;;;;;;5.68;0.90;;;;;;;;;;6159264;23;20522;-73
2022/09/17 04:47:39;;;;;;;2.75;1.00;;;;;;;;;;6159614;23;20089;-72
2022/09/17 04:50:05;;;;;;;3.75;1.00;;;;;;;;;;6157866;23;20030;-73
2022/09/17 04:52:32;;;;;;;6.88;0.90;;;;;;;;;;6159551;23;20026;-73
2022/09/17 04:54:58;;;;;;;4.10;1.02;;;;;;;;;;6158139;23;20468;-73
2022/09/17 04:57:25;;;;;;;7.18;1.95;;;;;;;;;;6159315;23;20026;-72
2022/09/17 04:59:52;;;;;;;3.22;1.00;;;;;;;;;;6159319;23;20085;-72
2022/09/17 05:02:18;;;;;;;5.22;0.98;;;;;;;;;;6159883;23;20033;-72
2022/09/17 05:04:44;;;;;;;8.45;2.30;;;;;;;;;;6159528;23;20029;-72
2022/09/17 05:07:11;;;;;;;3.30;0.73;;;;;;;;;;6159621;23;20030;-74
2022/09/17 05:09:39;;;;;;;3.75;0.85;;;;;;;;;;6159470;23;20400;-73
2022/09/17 05:12:05;;;;;;;4.28;0.63;;;;;;;;;;6159616;23;20036;-73
2022/09/17 05:14:32;;;;;;;2.97;0.90;;;;;;;;;;6159118;23;20034;-73
2022/09/17 05:16:58;;;;;;;5.95;1.35;;;;;;;;;;6159365;23;20034;-73
2022/09/17 05:19:24;;;;;;;6.82;1.00;;;;;;;;;;6159707;23;20036;-73
2022/09/17 05:21:50;;;;;;;4.47;0.40;;;;;;;;;;6159528;23;20104;-73
2022/09/17 05:24:17;;;;;;;1.80;1.00;;;;;;;;;;6159435;23;20025;-73
2022/09/17 05:26:43;;;;;;;5.70;1.15;;;;;;;;;;6159053;23;20065;-73
2022/09/17 05:29:09;;;;;;;5.57;0.93;;;;;;;;;;6158905;23;20029;-73
2022/09/17 05:31:35;;;;;;;3.97;0.60;;;;;;;;;;6159278;23;20026;-73
2022/09/17 05:34:02;;;;;;;3.67;0.75;;;;;;;;;;6158672;23;20033;-73
2022/09/17 05:36:28;;;;;;;2.97;0.98;;;;;;;;;;6159042;23;20049;-73
2022/09/17 05:38:55;;;;;;;1.95;0.57;;;;;;;;;;6158631;23;20026;-74
2022/09/17 05:41:21;;;;;;;5.43;1.30;;;;;;;;;;6158664;23;20029;-73
2022/09/17 05:43:48;;;;;;;9.63;1.27;;;;;;;;;;6159251;23;20088;-74
2022/09/17 05:46:14;;;;;;;4.55;0.80;;;;;;;;;;6158893;23;20052;-73
2022/09/17 05:48:40;;;;;;;6.00;0.90;;;;;;;;;;6158793;23;20058;-73
2022/09/17 05:51:07;;;;;;;4.60;2.05;;;;;;;;;;6159044;23;20030;-73
2022/09/17 05:53:33;;;;;;;8.52;1.08;;;;;;;;;;6159149;23;20029;-73
2022/09/17 05:55:59;;;;;;;4.75;1.00;;;;;;;;;;6159329;23;20033;-73
2022/09/17 05:58:26;;;;;;;8.20;1.00;;;;;;;;;;6159220;23;20037;-73
2022/09/17 06:00:52;;;;;;;9.10;1.55;;;;;;;;;;6159156;23;20030;-73
2022/09/17 06:03:19;;;;;;;6.05;0.82;;;;;;;;;;6158836;23;20077;-73
2022/09/17 06:05:53;;;;;;;4.03;0.98;;;;;;;;;;6160588;23;20038;-73
2022/09/17 06:08:19;;;;;;;3.08;0.65;;;;;;;;;;6160652;23;20077;-73
2022/09/17 06:10:46;;;;;;;5.85;1.10;;;;;;;;;;6160745;23;20030;-74
2022/09/17 06:13:12;;;;;;;4.80;0.80;;;;;;;;;;6160088;23;21013;-73
2022/09/17 06:15:38;;;;;;;4.20;0.75;;;;;;;;;;6160746;23;20041;-73
2022/09/17 06:18:04;;;;;;;3.22;1.30;;;;;;;;;;6160375;23;20911;-73
2022/09/17 06:20:31;;;;;;;7.60;1.25;;;;;;;;;;6160202;23;20034;-73
2022/09/17 06:22:57;;;;;;;1.98;0.90;;;;;;;;;;6160600;23;20034;-73
2022/09/17 06:25:25;;;;;;;3.05;0.60;;;;;;;;;;6160779;23;20950;-72
2022/09/17 06:27:51;;;;;;;3.15;0.65;;;;;;;;;;6160749;23;20026;-73
2022/09/17 06:30:17;;;;;;;6.35;1.05;;;;;;;;;;6160421;23;20030;-73
2022/09/17 06:32:44;;;;;;;6.00;1.05;;;;;;;;;;6160525;23;20038;-72
2022/09/17 06:35:11;;;;;;;6.60;1.63;;;;;;;;;;6160278;23;20030;-73
2022/09/17 06:37:39;;;;;;;5.47;1.23;;;;;;;;;;6160516;23;20077;-71
2022/09/17 06:40:06;;;;;;;3.40;0.80;;;;;;;;;;6160304;23;20038;-73
2022/09/17 06:42:32;;;;;;;6.90;1.13;;;;;;;;;;6160292;23;20030;-72
2022/09/17 06:44:58;;;;;;;5.30;1.00;;;;;;;;;;6159899;23;20026;-74
2022/09/17 06:47:32;;;;;;;4.00;1.00;;;;;;;;;;6159343;23;20036;-73
2022/09/17 06:50:00;;;;;;;6.97;0.88;;;;;;;;;;6159556;23;20036;-72
2022/09/17 06:52:26;;;;;;;6.85;0.80;;;;;;;;;;6159820;23;20533;-73
2022/09/17 06:54:53;;;;;;;4.55;0.90;;;;;;;;;;6158822;23;20030;-73
2022/09/17 06:57:19;;;;;;;4.20;0.70;;;;;;;;;;6160468;23;20081;-72
2022/09/17 06:59:52;;;;;;;4.93;0.95;;;;;;;;;;6159853;23;20030;-74
2022/09/17 07:02:18;;;;;;;4.80;1.00;;;;;;;;;;6160140;23;20518;-71
2022/09/17 07:04:44;;;;;;;5.25;1.00;;;;;;;;;;6160605;23;20030;-73
2022/09/17 07:07:11;;;;;;;9.68;1.00;;;;;;;;;;6160313;23;20030;-73
2022/09/17 07:09:37;;;;;;;5.03;1.15;;;;;;;;;;6160810;23;20029;-74
2022/09/17 07:12:08;;;;;;;5.35;1.08;;;;;;;;;;6160509;23;20030;-71
2022/09/17 07:14:34;;;;;;;8.60;1.35;;;;;;;;;;6158583;23;20026;-71
2022/09/17 07:17:00;;;;;;;4.82;0.95;;;;;;;;;;6159823;23;20057;-73
2022/09/17 07:19:27;;;;;;;7.38;1.20;;;;;;;;;;6160556;23;20041;-72
2022/09/17 07:21:53;;;;;;;6.25;1.30;;;;;;;;;;6160105;23;20029;-72
2022/09/17 07:24:19;;;;;;;4.93;0.80;;;;;;;;;;6160326;23;20089;-72
2022/09/17 07:26:45;;;;;;;6.95;1.20;;;;;;;;;;6160815;23;20083;-72
2022/09/17 07:29:12;;;;;;;3.72;0.93;;;;;;;;;;6160604;23;20436;-73
2022/09/17 07:31:38;;;;;;;4.43;1.02;;;;;;;;;;6160672;23;20029;-73
2022/09/17 07:34:16;;;;;;;2.53;0.50;;;;;;;;;;6160208;23;20021;-72
2022/09/17 07:36:43;;;;;;;8.63;1.55;;;;;;;;;;6158750;23;20061;-71
2022/09/17 07:39:12;;;;;;;5.30;1.02;;;;;;;;;;6160293;23;20064;-73
2022/09/17 07:41:38;;;;;;;4.93;1.70;;;;;;;;;;6159811;23;20030;-74
2022/09/17 07:44:08;;;;;;;3.45;0.93;;;;;;;;;;6159961;23;20030;-74
2022/09/17 07:46:34;;;;;;;3.05;0.77;;;;;;;;;;6160142;23;20038;-72
2022/09/17 07:49:01;;;;;;;2.58;0.50;;;;;;;;;;6160284;23;20036;-73
2022/09/17 07:51:27;;;;;;;4.28;0.77;;;;;;;;;;6160359;23;20081;-74
2022/09/17 07:53:54;;;;;;;5.35;0.98;;;;;;;;;;6160601;23;20103;-73
2022/09/17 07:56:21;;;;;;;4.40;0.85;;;;;;;;;;6160206;23;20026;-73
2022/09/17 07:58:47;;;;;;;6.45;1.10;;;;;;;;;;6159802;23;20034;-72
2022/09/17 08:01:17;;;;;;;8.18;1.83;;;;;;;;;;6158698;23;20096;-74
2022/09/17 08:03:47;;;;;;;5.03;0.70;;;;;;;;;;6160359;23;20033;-74
2022/09/17 08:06:14;;;;;;;5.43;1.23;;;;;;;;;;6159732;23;20033;-73
2022/09/17 08:08:41;;;;;;;5.93;0.90;;;;;;;;;;6159909;23;20151;-73
2022/09/17 08:11:11;;;;;;;9.05;0.90;;;;;;;;;;6160113;23;20029;-73
2022/09/17 08:13:37;;;;;;;7.28;1.00;;;;;;;;;;6159777;23;20034;-73
2022/09/17 08:16:08;;;;;;;2.97;0.57;;;;;;;;;;6160729;23;20089;-73
2022/09/17 08:18:35;;;;;;;4.60;0.88;;;;;;;;;;6160114;23;20460;-72
2022/09/17 08:21:03;;;;;;;8.05;1.25;;;;;;;;;;6159750;23;20037;-74
2022/09/17 08:23:30;;;;;;;4.65;0.50;;;;;;;;;;6159297;23;20026;-73
2022/09/17 08:25:57;;;;;;;3.70;0.70;;;;;;;;;;6159909;23;20029;-73
2022/09/17 08:28:24;;;;;;;1.38;0.40;;;;;;;;;;6159310;23;20069;-73
2022/09/17 08:30:51;;;;;;;2.33;0.60;;;;;;;;;;6158656;23;20030;-73
2022/09/17 08:33:18;;;;;;;1.23;0.50;;;;;;;;;;6159788;23;20030;-72
2022/09/17 08:35:51;;;;;;;3.40;0.60;;;;;;;;;;6159670;23;20026;-73
2022/09/17 08:38:18;;;;;;;6.40;0.90;;;;;;;;;;6160479;23;20030;-73
2022/09/17 08:40:51;;;;;;;8.40;1.60;;;;;;;;;;6159618;23;20416;-73
2022/09/17 08:43:18;;;;;;;1.20;0.55;;;;;;;;;;6160064;23;20034;-73
2022/09/17 08:45:50;;;;;;;2.10;0.63;;;;;;;;;;6159880;23;20066;-72
2022/09/17 08:48:17;;;;;;;2.97;0.47;;;;;;;;;;6159717;23;20380;-72
2022/09/17 08:50:44;;;;;;;3.17;0.60;;;;;;;;;;6159431;23;20524;-72
2022/09/17 08:53:13;;;;;;;2.00;0.57;;;;;;;;;;6159799;23;20034;-72
2022/09/17 08:55:42;;;;;;;3.83;0.65;;;;;;;;;;6159503;23;20085;-74
2022/09/17 08:58:20;;;;;;;5.03;0.65;;;;;;;;;;6160153;23;20026;-73
2022/09/17 09:00:54;;;;;;;3.90;0.98;;;;;;;;;;6159394;23;20026;-72
2022/09/17 09:03:21;;;;;;;;;;;;;;;;;;6158966;23;20026;-72
2022/09/17 09:05:51;;;;;;;2.33;0.60;;;;;;;;;;6158103;23;46194;-72
2022/09/17 09:08:24;;;;;;;2.63;0.43;;;;;;;;;;6159125;23;20475;-70
2022/09/17 09:10:54;;;;;;;2.60;0.60;;;;;;;;;;6159724;23;20081;-72
2022/09/17 09:13:21;;;;;;;3.90;0.77;;;;;;;;;;6159155;23;20085;-72
2022/09/17 09:15:53;;;;;;;3.83;0.80;;;;;;;;;;6159397;23;20030;-72
2022/09/17 09:18:24;;;;;;;2.03;0.40;;;;;;;;;;6159422;23;20033;-71
2022/09/17 09:20:58;;;;;;;5.43;0.63;;;;;;;;;;6159190;23;20097;-73
2022/09/17 09:23:48;;;;;;;3.28;0.90;;;;;;;;;;6158108;23;20030;-73
2022/09/17 09:26:19;;;;;;;4.38;0.70;;;;;;;;;;6117945;23;20428;-73
2022/09/17 09:28:51;;;;;;;3.45;0.95;;;;;;;;;;6159092;23;20030;-72
2022/09/17 09:31:33;;;;;;;3.97;0.52;;;;;;;;;;6159373;23;20037;-72
2022/09/17 09:34:01;;;;;;;6.53;0.85;;;;;;;;;;6158882;23;20536;-71
2022/09/17 09:36:28;;;;;;;4.18;0.57;;;;;;;;;;6159025;23;20033;-74
2022/09/17 09:39:04;;;;;;;6.47;1.20;;;;;;;;;;6159609;23;20034;-72
2022/09/17 09:41:36;;;;;;;3.53;0.60;;;;;;;;;;6160702;23;20035;-70
2022/09/17 09:44:03;;;;;;;5.38;0.80;;;;;;;;;;6158667;23;20030;-71
2022/09/17 09:46:39;;;;;;;6.35;0.80;;;;;;;;;;6158937;23;20030;-69
2022/09/17 09:49:10;;;;;;;8.38;1.15;;;;;;;;;;6159369;23;20030;-70
2022/09/17 09:51:55;;;;;;;8.40;0.82;;;;;;;;;;6159648;23;20502;-69
2022/09/17 09:54:27;;;;;;;3.05;0.98;;;;;;;;;;6159597;23;20349;-70
2022/09/17 09:56:53;;;;;;;4.28;0.98;;;;;;;;;;6159922;23;20395;-73
2022/09/17 09:59:19;;;;;;;9.05;2.10;;;;;;;;;;6160626;23;20026;-74
2022/09/17 10:01:47;;;;;;;13.30;2.00;;;;;;;;;;6160443;23;20030;-72
2022/09/17 10:04:23;;;;;;;7.30;0.90;;;;;;;;;;6160225;23;20117;-71
2022/09/17 10:06:51;;;;;;;3.47;0.55;;;;;;;;;;6160770;23;20030;-73
2022/09/17 10:09:20;;;;;;;1.98;0.50;;;;;;;;;;6160770;23;20026;-73
2022/09/17 10:12:03;;;;;;;1.85;0.73;;;;;;;;;;6160515;23;20030;-72
2022/09/17 10:14:31;;;;;;;4.00;0.70;;;;;;;;;;6163890;23;20041;-72
2022/09/17 10:17:11;;;;;;;1.92;0.32;;;;;;;;;;6189890;23;20039;-72
2022/09/17 10:19:37;;;;;;;1.25;0.40;;;;;;;;;;6189561;23;20463;-71
2022/09/17 10:22:19;;;;;;;2.33;0.70;;;;;;;;;;6189761;23;20483;-71
2022/09/17 10:24:46;;;;;;;2.45;0.70;;;;;;;;;;6189797;23;20076;-72
2022/09/17 10:27:14;;;;;;;3.80;0.65;;;;;;;;;;6189874;23;20033;-71
2022/09/17 10:29:44;;;;;;;4.97;1.58;;;;;;;;;;6189189;23;20029;-71
2022/09/17 10:32:15;;;;;;;6.70;1.17;;;;;;;;;;6189922;23;20030;-71
2022/09/17 10:34:55;;;;;;;4.60;1.05;;;;;;;;;;6189483;23;20446;-72
2022/09/17 10:37:32;;;;;;;3.63;0.80;;;;;;;;;;6189644;23;20080;-71
2022/09/17 10:39:58;;;;;;;3.42;0.80;;;;;;;;;;6162755;23;20084;-73
2022/09/17 10:42:25;;;;;;;2.65;0.55;;;;;;;;;;6189314;23;20463;-72
2022/09/17 10:44:52;;;;;;;3.35;0.93;;;;;;;;;;6189454;23;20030;-72
2022/09/17 10:47:21;;;;;;;3.50;0.93;;;;;;;;;;6189784;23;20025;-71
2022/09/17 10:50:01;;;;;;;3.03;0.68;;;;;;;;;;6189515;23;20037;-72
2022/09/17 10:52:37;;;;;;;4.82;0.80;;;;;;;;;;6189984;23;20513;-73
2022/09/17 10:55:09;;;;;;;9.73;1.65;;;;;;;;;;6189860;23;20037;-72
2022/09/17 10:57:46;;;;;;;4.40;0.82;;;;;;;;;;6189837;23;20026;-73
2022/09/17 11:00:14;;;;;;;5.53;0.70;;;;;;;;;;6188995;23;20029;-72
2022/09/17 11:02:59;;;;;;;8.85;1.15;;;;;;;;;;6162862;23;20030;-73
2022/09/17 11:05:25;;;;;;;4.85;0.75;;;;;;;;;;6189688;23;20080;-72
2022/09/17 11:08:01;;;;;;;4.72;1.52;;;;;;;;;;6190011;23;20029;-72
2022/09/17 11:10:43;;;;;;;7.88;1.17;;;;;;;;;;6190168;23;20085;-73
2022/09/17 11:13:31;;;;;;;4.72;1.33;;;;;;;;;;6190358;23;20030;-73
2022/09/17 11:16:06;;;;;;;5.85;0.80;;;;;;;;;;6189360;23;20034;-72
2022/09/17 11:18:35;;;;;;;6.07;1.40;;;;;;;;;;6163409;23;20077;-73
2022/09/17 11:21:07;;;;;;;8.10;1.10;;;;;;;;;;6189983;23;20030;-72
2022/09/17 11:23:52;;;;;;;7.88;1.42;;;;;;;;;;6188602;23;20518;-71
2022/09/17 11:26:37;;;;;;;6.22;0.90;;;;;;;;;;6189262;23;20032;-71
2022/09/17 11:29:06;;;;;;;5.78;1.20;;;;;;;;;;6188643;23;20021;-72
2022/09/17 11:31:32;;;;;;;5.93;1.35;;;;;;;;;;6189855;23;20033;-72
2022/09/17 11:34:21;;;;;;;9.18;1.42;;;;;;;;;;6163481;23;20026;-71
2022/09/17 11:36:52;;;;;;;8.50;1.55;;;;;;;;;;6190023;23;20555;-71
2022/09/17 11:39:31;;;;;;;4.13;1.02;;;;;;;;;;6189734;23;20494;-70
2022/09/17 11:41:59;;;;;;;6.20;0.90;;;;;;;;;;6162901;23;20072;-71
2022/09/17 11:44:35;;;;;;;6.22;1.02;;;;;;;;;;6189859;23;20092;-72
2022/09/17 11:47:13;;;;;;;7.93;1.50;;;;;;;;;;6189714;23;20029;-73
2022/09/17 11:49:51;;;;;;;2.55;0.80;;;;;;;;;;6163600;23;20033;-74
2022/09/17 11:52:17;;;;;;;5.40;0.90;;;;;;;;;;6190107;23;20458;-73
2022/09/17 11:54:48;;;;;;;4.82;1.00;;;;;;;;;;6189480;23;20029;-72
2022/09/17 11:57:25;;;;;;;9.95;1.40;;;;;;;;;;6190247;23;20030;-72
2022/09/17 11:59:55;;;;;;;6.43;1.20;;;;;;;;;;6190152;23;21053;-74
2022/09/17 12:02:44;;;;;;;9.07;1.67;;;;;;;;;;6190202;23;20033;-71
2022/09/17 12:05:19;;;;;;;4.38;1.08;;;;;;;;;;6189325;23;20037;-72
2022/09/17 12:07:49;;;;;;;4.60;1.45;;;;;;;;;;6189780;23;20029;-73
2022/09/17 12:10:30;;;;;;;8.63;1.92;;;;;;;;;;6189959;23;20036;-73
2022/09/17 12:13:01;;;;;;;11.77;1.98;;;;;;;;;;6189172;23;20084;-71
2022/09/17 12:15:29;;;;;;;9.95;1.58;;;;;;;;;;6162102;23;20077;-74
2022/09/17 12:18:13;;;;;;;3.72;0.93;;;;;;;;;;6159203;23;20026;-76
2022/09/17 12:20:59;;;;;;;3.63;1.00;;;;;;;;;;6159469;23;21056;-73
2022/09/17 12:23:31;;;;;;;3.03;0.85;;;;;;;;;;6159015;23;20026;-74
2022/09/17 12:26:05;;;;;;;2.72;0.98;;;;;;;;;;6159725;23;20093;-74
2022/09/17 12:28:40;;;;;;;4.03;1.02;;;;;;;;;;6160200;23;20052;-73
2022/09/17 12:31:22;;;;;;;4.93;0.90;;;;;;;;;;6160326;23;20030;-73
2022/09/17 12:33:52;;;;;;;3.88;0.90;;;;;;;;;;6158820;23;20058;-74
2022/09/17 12:36:18;;;;;;;3.65;0.75;;;;;;;;;;6160022;23;20085;-73
2022/09/17 12:38:48;;;;;;;7.70;1.30;;;;;;;;;;6159566;23;20538;-74
2022/09/17 12:41:30;;;;;;;7.03;1.05;;;;;;;;;;6159658;23;20036;-75
2022/09/17 12:44:05;;;;;;;9.80;1.98;;;;;;;;;;6159641;23;20026;-75
2022/09/17 12:46:47;;;;;;;7.30;2.10;;;;;;;;;;6159898;23;20466;-73
2022/09/17 12:49:26;;;;;;;4.00;1.08;;;;;;;;;;6158649;23;20454;-74
2022/09/17 12:52:13;;;;;;;6.32;0.95;;;;;;;;;;6159931;23;20030;-74
2022/09/17 12:54:46;;;;;;;3.80;1.15;;;;;;;;;;6159946;23;20037;-74
2022/09/17 12:57:22;;;;;;;6.63;2.00;;;;;;;;;;6158554;23;20029;-73
2022/09/17 12:59:59;;;;;;;9.80;1.10;;;;;;;;;;6159001;23;20121;-75
2022/09/17 13:02:37;;;;;;;3.35;0.57;;;;;;;;;;6159721;23;20041;-74
2022/09/17 13:05:15;;;;;;;7.32;1.10;;;;;;;;;;6159561;23;20026;-74
2022/09/17 13:08:00;;;;;;;4.53;0.80;;;;;;;;;;6159262;23;20026;-75
2022/09/17 13:10:36;;;;;;;5.75;1.50;;;;;;;;;;6160053;23;20022;-75
2022/09/17 13:13:08;;;;;;;6.70;1.02;;;;;;;;;;6159066;23;20412;-74
2022/09/17 13:15:42;;;;;;;8.20;1.08;;;;;;;;;;6160871;23;20085;-72
2022/09/17 13:18:11;;;;;;;8.68;1.85;;;;;;;;;;6159659;23;20025;-72
2022/09/17 13:21:02;;;;;;;9.25;1.48;;;;;;;;;;6153326;23;20025;-72
2022/09/17 13:23:38;;;;;;;6.30;2.45;;;;;;;;;;6161402;23;20037;-75
2022/09/17 13:26:07;;;;;;;11.45;2.03;;;;;;;;;;6160712;23;20025;-75
2022/09/17 13:28:37;;;;;;;7.35;1.35;;;;;;;;;;6158787;23;20029;-74
2022/09/17 13:31:07;;;;;;;6.35;1.60;;;;;;;;;;6159550;23;20029;-75
2022/09/17 13:33:52;;;;;;;8.50;1.30;;;;;;;;;;6159414;23;20824;-74
2022/09/17 13:36:37;;;;;;;3.88;0.82;;;;;;;;;;6160292;23;20538;-73
2022/09/17 13:39:04;;;;;;;3.90;1.42;;;;;;;;;;6159988;23;20034;-73
2022/09/17 13:41:32;;;;;;;6.22;1.15;;;;;;;;;;6160156;23;20153;-73
2022/09/17 13:43:59;;;;;;;4.50;0.98;;;;;;;;;;6157903;23;20033;-70
2022/09/17 13:46:27;;;;;;;3.83;0.90;;;;;;;;;;6158502;23;20482;-74
2022/09/17 13:48:56;;;;;;;9.20;3.20;;;;;;;;;;6160902;23;20037;-72
2022/09/17 13:51:29;;;;;;;2.28;0.60;;;;;;;;;;6160040;23;20061;-74
2022/09/17 13:53:59;;;;;;;2.13;0.70;;;;;;;;;;6160213;23;20030;-73
2022/09/17 13:56:35;;;;;;;4.15;0.60;;;;;;;;;;6160372;23;20036;-73
2022/09/17 13:59:12;;;;;;;3.00;0.65;;;;;;;;;;6160631;23;20030;-74
2022/09/17 14:01:55;;;;;;;3.25;0.77;;;;;;;;;;6158439;23;20430;-72
2022/09/17 14:04:40;;;;;;;3.28;0.60;;;;;;;;;;6159560;23;20085;-74
2022/09/17 14:07:29;;;;;;;7.22;0.80;;;;;;;;;;6160345;23;20037;-72
2022/09/17 14:09:56;;;;;;;4.10;0.90;;;;;;;;;;6147644;23;20077;-73
2022/09/17 14:12:46;;;;;;;6.68;1.83;;;;;;;;;;6160295;23;20034;-72
2022/09/17 14:15:31;;;;;;;8.63;1.10;;;;;;;;;;6159525;23;20464;-73
2022/09/17 14:17:57;;;;;;;4.13;0.93;;;;;;;;;;6159993;23;20034;-74
2022/09/17 14:20:25;;;;;;;6.28;0.77;;;;;;;;;;6159273;23;20101;-74
2022/09/17 14:22:59;;;;;;;6.18;1.20;;;;;;;;;;6159479;23;20026;-73
2022/09/17 14:25:36;;;;;;;8.25;1.23;;;;;;;;;;6158401;23;20034;-73
2022/09/17 14:28:07;;;;;;;5.95;1.00;;;;;;;;;;6158982;23;20487;-73
2022/09/17 14:30:33;;;;;;;5.47;2.15;;;;;;;;;;6156269;23;20030;-74
2022/09/17 14:33:07;;;;;;;5.97;1.15;;;;;;;;;;6155628;23;20041;-74
2022/09/17 14:35:44;;;;;;;5.32;1.00;;;;;;;;;;6158800;23;20045;-74
2022/09/17 14:38:25;;;;;;;6.95;1.33;;;;;;;;;;6159181;23;20048;-73
2022/09/17 14:40:59;;;;;;;5.82;1.10;;;;;;;;;;6160108;23;20030;-71
2022/09/17 14:43:47;;;;;;;10.82;1.73;;;;;;;;;;6157525;23;20029;-72
2022/09/17 14:46:39;;;;;;;8.52;1.88;;;;;;;;;;6159621;23;20467;-71
2022/09/17 14:49:14;;;;;;;22.08;3.28;;;;;;;;;;6155604;23;20053;-73
2022/09/17 14:51:40;;;;;;;7.72;1.65;;;;;;;;;;6159023;23;20030;-73
2022/09/17 14:54:09;;;;;;;6.80;1.20;;;;;;;;;;6157441;23;20072;-70
2022/09/17 14:56:44;;;;;;;9.77;2.50;;;;;;;;;;6157318;23;20035;-72
2022/09/17 14:59:17;;;;;;;5.55;1.17;;;;;;;;;;6157802;23;20029;-73
2022/09/17 15:01:46;;;;;;;9.35;1.83;;;;;;;;;;6158745;23;20555;-72
2022/09/17 15:04:12;;;;;;;7.22;1.48;;;;;;;;;;6159267;23;20062;-71